createdAt,value
2023-03-05T00:01:22.575Z,9.03
2023-03-05T00:03:49.357Z,9.23
2023-03-05T00:06:17.383Z,9.07
2023-03-05T00:08:44.147Z,9.00
2023-03-05T00:11:12.061Z,8.68
2023-03-05T00:13:38.581Z,8.50
2023-03-05T00:16:08.083Z,8.68
2023-03-05T00:18:34.716Z,8.43
2023-03-05T00:21:01.058Z,7.95
2023-03-05T00:23:27.612Z,7.75
2023-03-05T00:25:54.061Z,7.57
2023-03-05T00:28:20.516Z,6.72
2023-03-05T00:30:46.979Z,6.90
2023-03-05T00:33:13.922Z,6.05
2023-03-05T00:35:45.675Z,6.25
2023-03-05T00:38:13.338Z,5.70
2023-03-05T00:40:41.779Z,5.75
2023-03-05T00:43:09.771Z,5.53
2023-03-05T00:45:36.607Z,5.57
2023-03-05T00:48:03.764Z,6.57
2023-03-05T00:50:30.572Z,6.60
2023-03-05T00:52:57.047Z,6.63
2023-03-05T00:55:23.413Z,6.88
2023-03-05T00:57:49.820Z,6.70
2023-03-05T01:00:16.746Z,6.18
2023-03-05T01:02:43.541Z,6.50
2023-03-05T01:05:14.473Z,7.20
2023-03-05T01:07:41.420Z,7.63
2023-03-05T01:10:12.093Z,7.28
2023-03-05T01:12:39.380Z,7.45
2023-03-05T01:15:06.572Z,7.33
2023-03-05T01:17:33.238Z,7.20
2023-03-05T01:19:59.654Z,7.65
2023-03-05T01:22:26.116Z,8.82
2023-03-05T01:24:52.473Z,9.13
2023-03-05T01:27:18.869Z,8.90
2023-03-05T01:29:45.253Z,8.68
2023-03-05T01:32:11.675Z,8.38
2023-03-05T01:34:38.146Z,8.80
2023-03-05T01:37:04.636Z,8.55
2023-03-05T01:39:31.023Z,7.97
2023-03-05T01:41:57.373Z,8.25
2023-03-05T01:44:27.212Z,8.70
2023-03-05T01:46:53.772Z,8.50
2023-03-05T01:49:29.437Z,8.60
2023-03-05T01:52:11.755Z,8.37
2023-03-05T01:54:45.171Z,7.90
2023-03-05T01:57:20.587Z,8.32
2023-03-05T01:59:51.158Z,8.20
2023-03-05T02:02:18.611Z,8.05
2023-03-05T02:05:08.201Z,8.00
2023-03-05T02:07:37.215Z,7.85
2023-03-05T02:10:25.812Z,7.85
2023-03-05T02:12:54.592Z,7.20
2023-03-05T02:15:21.605Z,7.25
2023-03-05T02:17:48.572Z,7.50
2023-03-05T02:20:21.524Z,7.43
2023-03-05T02:22:47.987Z,8.18
2023-03-05T02:25:20.535Z,7.00
2023-03-05T02:27:54.993Z,7.85
2023-03-05T02:30:21.543Z,6.73
2023-03-05T02:32:47.974Z,7.07
2023-03-05T02:35:14.423Z,6.30
2023-03-05T02:37:41.321Z,7.15
2023-03-05T02:40:08.782Z,6.45
2023-03-05T02:42:35.598Z,7.27
2023-03-05T02:45:02.596Z,7.68
2023-03-05T02:47:29.275Z,6.85
2023-03-05T02:49:56.349Z,7.35
2023-03-05T02:52:25.653Z,6.43
2023-03-05T02:54:52.590Z,6.70
2023-03-05T02:57:19.412Z,7.30
2023-03-05T02:59:46.332Z,7.43
2023-03-05T03:02:13.381Z,7.90
2023-03-05T03:04:40.191Z,8.93
2023-03-05T03:07:06.547Z,7.67
2023-03-05T03:09:35.886Z,8.02
2023-03-05T03:12:03.273Z,7.82
2023-03-05T03:14:38.993Z,8.02
2023-03-05T03:17:11.694Z,8.00
2023-03-05T03:19:39.068Z,8.30
2023-03-05T03:22:07.365Z,7.97
2023-03-05T03:24:34.795Z,7.90
2023-03-05T03:27:01.781Z,8.48
2023-03-05T03:29:28.367Z,7.97
2023-03-05T03:31:54.757Z,8.13
2023-03-05T03:34:21.400Z,8.27
2023-03-05T03:36:49.325Z,8.07
2023-03-05T03:39:16.480Z,8.07
2023-03-05T03:41:48.598Z,7.78
2023-03-05T03:44:17.500Z,8.50
2023-03-05T03:46:46.157Z,8.85
2023-03-05T03:49:19.325Z,8.63
2023-03-05T03:51:46.357Z,8.07
2023-03-05T03:54:13.840Z,8.18
2023-03-05T03:56:40.370Z,7.97
2023-03-05T03:59:06.770Z,7.53
2023-03-05T04:01:33.406Z,7.68
2023-03-05T04:03:59.985Z,7.40
2023-03-05T04:06:26.460Z,6.43
2023-03-05T04:08:52.841Z,6.43
2023-03-05T04:11:19.475Z,7.07
2023-03-05T04:13:46.872Z,6.03
2023-03-05T04:16:14.612Z,5.38
2023-03-05T04:18:41.206Z,4.78
2023-03-05T04:21:08.596Z,5.03
2023-03-05T04:23:36.415Z,4.85
2023-03-05T04:26:03.364Z,4.35
2023-03-05T04:28:29.786Z,4.28
2023-03-05T04:30:56.292Z,4.43
2023-03-05T04:33:22.732Z,4.23
2023-03-05T04:35:49.165Z,5.00
2023-03-05T04:38:15.532Z,4.38
2023-03-05T04:40:42.041Z,4.75
2023-03-05T04:43:08.411Z,4.50
2023-03-05T04:45:34.830Z,3.87
2023-03-05T04:48:01.199Z,3.95
2023-03-05T04:50:27.626Z,4.18
2023-03-05T04:52:54.162Z,3.97
2023-03-05T04:55:20.521Z,3.72
2023-03-05T04:57:46.962Z,4.67
2023-03-05T05:00:15.387Z,4.10
2023-03-05T05:02:43.180Z,4.18
2023-03-05T05:05:13.537Z,4.15
2023-03-05T05:07:40.083Z,4.72
2023-03-05T05:10:08.165Z,5.07
2023-03-05T05:12:35.443Z,4.70
2023-03-05T05:15:02.527Z,5.25
2023-03-05T05:17:30.883Z,4.68
2023-03-05T05:19:57.519Z,4.82
2023-03-05T05:22:23.958Z,4.90
2023-03-05T05:24:50.438Z,4.60
2023-03-05T05:27:16.828Z,4.85
2023-03-05T05:29:43.191Z,4.07
2023-03-05T05:32:09.639Z,4.32
2023-03-05T05:34:36.041Z,4.90
2023-03-05T05:37:02.389Z,4.45
2023-03-05T05:39:28.818Z,4.55
2023-03-05T05:41:55.187Z,9.40
2023-03-05T05:44:21.556Z,8.60
2023-03-05T05:46:47.960Z,6.10
2023-03-05T05:49:14.400Z,7.10
2023-03-05T05:51:41.231Z,7.18
2023-03-05T05:54:07.639Z,5.95
2023-03-05T05:56:34.147Z,5.72
2023-03-05T05:59:00.549Z,6.43
2023-03-05T06:01:30.512Z,6.80
2023-03-05T06:03:57.730Z,5.85
2023-03-05T06:06:25.965Z,5.78
2023-03-05T06:08:53.023Z,5.80
2023-03-05T06:11:20.247Z,5.67
2023-03-05T06:13:47.793Z,5.57
2023-03-05T06:16:21.934Z,6.05
2023-03-05T06:18:48.283Z,5.75
2023-03-05T06:21:16.991Z,5.65
2023-03-05T06:23:44.273Z,6.03
2023-03-05T06:26:12.810Z,5.43
2023-03-05T06:28:40.550Z,5.60
2023-03-05T06:31:16.530Z,6.18
2023-03-05T06:33:43.404Z,5.68
2023-03-05T06:36:13.301Z,5.80
2023-03-05T06:38:39.855Z,5.35
2023-03-05T06:41:12.680Z,5.43
2023-03-05T06:43:41.445Z,5.40
2023-03-05T06:46:35.115Z,5.15
2023-03-05T06:49:03.720Z,4.57
2023-03-05T06:51:33.272Z,4.13
2023-03-05T06:54:03.143Z,4.10
2023-03-05T06:56:29.723Z,4.20
2023-03-05T06:58:56.712Z,3.65
2023-03-05T07:01:23.726Z,3.43
2023-03-05T07:03:51.553Z,3.40
2023-03-05T07:06:18.651Z,3.88
2023-03-05T07:08:45.111Z,3.47
2023-03-05T07:11:18.515Z,3.03
2023-03-05T07:13:47.611Z,3.30
2023-03-05T07:16:17.083Z,2.90
2023-03-05T07:18:44.231Z,2.85
2023-03-05T07:21:14.779Z,2.63
2023-03-05T07:23:41.131Z,2.15
2023-03-05T07:26:07.523Z,2.43
2023-03-05T07:28:34.449Z,2.10
2023-03-05T07:31:04.509Z,2.75
2023-03-05T07:33:32.177Z,1.90
2023-03-05T07:35:58.667Z,2.10
2023-03-05T07:38:25.197Z,2.23
2023-03-05T07:40:51.625Z,2.60
2023-03-05T07:43:18.130Z,1.95
2023-03-05T07:45:45.819Z,2.70
2023-03-05T07:48:15.158Z,2.28
2023-03-05T07:50:41.625Z,1.93
2023-03-05T07:53:08.707Z,1.92
2023-03-05T07:55:35.257Z,1.90
2023-03-05T07:58:01.602Z,1.80
2023-03-05T08:00:27.986Z,1.70
2023-03-05T08:02:54.441Z,2.00
2023-03-05T08:05:20.867Z,2.00
2023-03-05T08:07:47.215Z,1.77
2023-03-05T08:10:13.583Z,2.03
2023-03-05T08:12:39.930Z,1.80
2023-03-05T08:15:07.020Z,2.00
2023-03-05T08:17:33.369Z,2.03
2023-03-05T08:20:00.235Z,2.25
2023-03-05T08:22:26.876Z,2.00
2023-03-05T08:24:53.236Z,2.13
2023-03-05T08:27:19.642Z,1.87
2023-03-05T08:29:45.991Z,2.47
2023-03-05T08:32:12.447Z,2.50
2023-03-05T08:34:38.859Z,2.08
2023-03-05T08:37:06.107Z,2.05
2023-03-05T08:39:32.553Z,2.37
2023-03-05T08:41:58.920Z,2.08
2023-03-05T08:44:25.311Z,2.60
2023-03-05T08:46:51.687Z,2.17
2023-03-05T08:49:18.062Z,2.13
2023-03-05T08:51:44.445Z,2.10
2023-03-05T08:54:10.848Z,1.88
2023-03-05T08:56:37.379Z,2.22
2023-03-05T08:59:03.941Z,2.90
2023-03-05T09:01:31.802Z,2.60
2023-03-05T09:03:59.229Z,2.33
2023-03-05T09:06:26.431Z,2.42
2023-03-05T09:08:53.561Z,2.45
2023-03-05T09:11:20.608Z,2.30
2023-03-05T09:13:47.028Z,2.60
2023-03-05T09:16:16.517Z,2.30
2023-03-05T09:18:43.806Z,2.38
2023-03-05T09:21:13.400Z,2.40
2023-03-05T09:23:40.650Z,2.50
2023-03-05T09:26:13.084Z,2.78
2023-03-05T09:28:40.282Z,2.90
2023-03-05T09:31:08.268Z,3.78
2023-03-05T09:33:35.477Z,3.33
2023-03-05T09:36:03.273Z,3.05
2023-03-05T09:38:30.287Z,2.50
2023-03-05T09:41:07.597Z,2.77
2023-03-05T09:43:55.046Z,3.00
2023-03-05T09:46:48.365Z,2.85
2023-03-05T09:49:31.053Z,2.35
2023-03-05T09:52:05.418Z,3.33
2023-03-05T09:54:41.800Z,3.27
2023-03-05T09:57:18.333Z,3.10
2023-03-05T09:59:59.291Z,2.55
2023-03-05T10:02:30.977Z,2.65
2023-03-05T10:05:24.776Z,2.38
2023-03-05T10:07:57.537Z,2.43
2023-03-05T10:10:41.910Z,2.35
2023-03-05T10:13:16.599Z,2.20
2023-03-05T10:15:59.045Z,2.08
2023-03-05T10:18:57.661Z,2.40
2023-03-05T10:21:40.255Z,2.20
2023-03-05T10:24:43.950Z,2.35
2023-03-05T10:27:33.618Z,2.80
2023-03-05T10:30:29.923Z,2.97
2023-03-05T10:33:15.476Z,2.42
2023-03-05T10:35:48.107Z,1.83
2023-03-05T10:38:29.458Z,2.45
2023-03-05T10:40:55.908Z,2.90
2023-03-05T10:43:48.359Z,1.83
2023-03-05T10:46:17.622Z,1.75
2023-03-05T10:48:50.858Z,1.50
2023-03-05T10:51:23.569Z,1.80
2023-03-05T10:53:57.831Z,1.52
2023-03-05T10:56:27.001Z,1.23
2023-03-05T10:58:54.049Z,1.30
2023-03-05T11:01:24.747Z,1.27
2023-03-05T11:04:23.774Z,2.05
2023-03-05T11:06:50.472Z,1.40
2023-03-05T11:09:21.457Z,2.03
2023-03-05T11:12:12.149Z,1.45
2023-03-05T11:14:47.697Z,1.27
2023-03-05T11:18:04.965Z,1.40
2023-03-05T11:20:36.621Z,1.52
2023-03-05T11:23:38.231Z,1.60
2023-03-05T11:26:13.545Z,1.40
2023-03-05T11:28:55.256Z,1.70
2023-03-05T11:31:31.002Z,1.45
2023-03-05T11:34:25.559Z,1.67
2023-03-05T11:36:53.115Z,1.20
2023-03-05T11:39:24.804Z,2.00
2023-03-05T11:41:59.500Z,1.20
2023-03-05T11:44:47.989Z,5.60
2023-03-05T11:47:35.855Z,3.30
2023-03-05T11:50:16.946Z,1.35
2023-03-05T11:52:54.508Z,1.20
2023-03-05T11:55:28.371Z,1.63
2023-03-05T11:58:03.915Z,1.42
2023-03-05T12:00:32.603Z,1.40
2023-03-05T12:03:03.921Z,1.00
2023-03-05T12:05:31.963Z,0.98
2023-03-05T12:08:01.705Z,0.80
2023-03-05T12:10:28.556Z,0.70
2023-03-05T12:13:23.638Z,0.70
2023-03-05T12:16:04.683Z,1.00
2023-03-05T12:18:37.065Z,1.10
2023-03-05T12:21:22.101Z,1.20
2023-03-05T12:23:50.299Z,0.90
2023-03-05T12:26:16.748Z,1.15
2023-03-05T12:28:43.134Z,0.90
2023-03-05T12:31:09.472Z,1.10
2023-03-05T12:33:43.406Z,1.37
2023-03-05T12:36:21.669Z,1.00
2023-03-05T12:38:51.900Z,1.00
2023-03-05T12:41:25.753Z,1.58
2023-03-05T12:44:10.169Z,1.50
2023-03-05T12:46:44.665Z,1.80
2023-03-05T12:49:20.246Z,1.63
2023-03-05T12:51:51.392Z,1.60
2023-03-05T12:54:34.333Z,1.63
2023-03-05T12:57:17.101Z,1.50
2023-03-05T12:59:48.616Z,1.60
2023-03-05T13:02:27.306Z,2.03
2023-03-05T13:04:59.433Z,1.50
2023-03-05T13:07:25.983Z,1.60
2023-03-05T13:09:57.701Z,1.40
2023-03-05T13:12:27.303Z,1.30
2023-03-05T13:15:04.240Z,1.38
2023-03-05T13:17:51.830Z,1.90
2023-03-05T13:20:40.529Z,1.70
2023-03-05T13:23:26.506Z,1.05
2023-03-05T13:26:20.033Z,1.20
2023-03-05T13:29:07.624Z,1.83
2023-03-05T13:31:36.609Z,1.70
2023-03-05T13:34:15.838Z,1.40
2023-03-05T13:36:47.265Z,1.58
2023-03-05T13:39:35.377Z,1.67
2023-03-05T13:42:35.071Z,1.40
2023-03-05T13:45:22.936Z,1.25
2023-03-05T13:47:58.601Z,1.50
2023-03-05T13:50:30.950Z,2.15
2023-03-05T13:53:14.747Z,2.00
2023-03-05T13:55:41.346Z,2.30
2023-03-05T13:58:49.247Z,1.50
2023-03-05T14:01:28.248Z,1.38
2023-03-05T14:03:58.441Z,1.20
2023-03-05T14:06:28.215Z,1.63
2023-03-05T14:09:02.437Z,2.08
2023-03-05T14:11:28.850Z,1.90
2023-03-05T14:14:15.550Z,1.98
2023-03-05T14:16:42.093Z,1.50
2023-03-05T14:19:31.617Z,1.20
2023-03-05T14:21:58.051Z,1.45
2023-03-05T14:24:28.516Z,1.63
2023-03-05T14:26:57.091Z,1.25
2023-03-05T14:29:26.250Z,1.20
2023-03-05T14:31:59.218Z,1.43
2023-03-05T14:34:31.735Z,1.45
2023-03-05T14:37:04.681Z,1.73
2023-03-05T14:39:50.969Z,1.48
2023-03-05T14:42:30.710Z,1.55
2023-03-05T14:45:00.231Z,1.20
2023-03-05T14:47:27.653Z,1.40
2023-03-05T14:49:54.353Z,1.30
2023-03-05T14:52:23.710Z,1.25
2023-03-05T14:54:50.926Z,1.50
2023-03-05T14:57:21.410Z,1.10
2023-03-05T14:59:47.761Z,1.42
2023-03-05T15:02:19.925Z,1.30
2023-03-05T15:04:46.765Z,1.38
2023-03-05T15:07:25.611Z,1.40
2023-03-05T15:09:52.050Z,1.53
2023-03-05T15:12:18.575Z,1.40
2023-03-05T15:14:45.120Z,1.55
2023-03-05T15:17:28.624Z,1.25
2023-03-05T15:19:55.012Z,1.38
2023-03-05T15:22:21.350Z,1.40
2023-03-05T15:24:47.735Z,1.27
2023-03-05T15:27:14.588Z,1.23
2023-03-05T15:29:41.059Z,5.25
2023-03-05T15:32:08.033Z,2.90
2023-03-05T15:34:34.971Z,2.00
2023-03-05T15:37:02.601Z,1.50
2023-03-05T15:39:29.216Z,3.28
2023-03-05T15:41:56.032Z,7.47
2023-03-05T15:44:22.663Z,3.45
2023-03-05T15:46:49.053Z,3.10
2023-03-05T15:49:15.772Z,2.42
2023-03-05T15:51:42.142Z,2.03
2023-03-05T15:54:09.354Z,1.92
2023-03-05T15:56:35.864Z,2.20
2023-03-05T15:59:02.268Z,2.30
2023-03-05T16:01:28.720Z,2.25
2023-03-05T16:03:55.140Z,1.80
2023-03-05T16:06:24.395Z,2.30
2023-03-05T16:08:55.306Z,1.60
2023-03-05T16:11:21.968Z,1.80
2023-03-05T16:13:50.370Z,1.48
2023-03-05T16:16:17.676Z,1.70
2023-03-05T16:18:46.238Z,2.05
2023-03-05T16:21:13.829Z,1.98
2023-03-05T16:23:40.190Z,1.80
2023-03-05T16:26:08.941Z,2.45
2023-03-05T16:28:35.350Z,2.88
2023-03-05T16:31:02.129Z,3.17
2023-03-05T16:33:28.659Z,2.20
2023-03-05T16:36:25.644Z,1.67
2023-03-05T16:38:54.374Z,1.75
2023-03-05T16:41:23.181Z,1.63
2023-03-05T16:43:51.601Z,1.63
2023-03-05T16:46:18.105Z,1.83
2023-03-05T16:48:45.046Z,1.87
2023-03-05T16:51:12.691Z,1.55
2023-03-05T16:53:39.961Z,1.60
2023-03-05T16:56:08.530Z,1.80
2023-03-05T16:58:36.323Z,1.35
2023-03-05T17:01:03.665Z,1.90
2023-03-05T17:03:30.372Z,1.52
2023-03-05T17:05:56.736Z,1.80
2023-03-05T17:08:24.362Z,1.75
2023-03-05T17:10:51.253Z,2.10
2023-03-05T17:13:17.640Z,1.80
2023-03-05T17:18:15.253Z,1.83
2023-03-05T17:20:41.625Z,1.92
2023-03-05T17:23:08.041Z,2.22
2023-03-05T17:25:36.681Z,2.60
2023-03-05T17:28:03.212Z,2.40
2023-03-05T17:30:32.062Z,2.50
2023-03-05T17:32:58.709Z,3.05
2023-03-05T17:35:25.219Z,3.08
2023-03-05T17:37:53.445Z,3.57
2023-03-05T17:40:19.884Z,3.03
2023-03-05T17:42:46.240Z,2.85
2023-03-05T17:45:13.081Z,4.03
2023-03-05T17:47:39.777Z,4.40
2023-03-05T17:50:07.993Z,4.00
2023-03-05T17:52:38.142Z,3.40
2023-03-05T17:55:08.978Z,3.33
2023-03-05T17:57:41.340Z,3.13
2023-03-05T18:00:15.340Z,3.25
2023-03-05T18:02:41.778Z,2.83
2023-03-05T18:05:08.846Z,2.47
2023-03-05T18:07:35.372Z,3.55
2023-03-05T18:10:03.231Z,3.03
2023-03-05T18:12:29.767Z,2.47
2023-03-05T18:14:56.213Z,2.30
2023-03-05T18:17:22.841Z,2.20
2023-03-05T18:19:49.846Z,2.00
2023-03-05T18:22:16.217Z,1.90
2023-03-05T18:24:42.575Z,2.13
2023-03-05T18:27:08.909Z,1.67
2023-03-05T18:29:35.412Z,2.10
2023-03-05T18:32:01.841Z,1.63
2023-03-05T18:34:28.290Z,2.47
2023-03-05T18:36:54.705Z,2.15
2023-03-05T18:39:21.485Z,3.10
2023-03-05T18:41:48.259Z,2.90
2023-03-05T18:44:15.245Z,3.15
2023-03-05T18:46:41.784Z,3.03
2023-03-05T18:49:11.835Z,2.50
2023-03-05T18:51:41.486Z,2.87
2023-03-05T18:54:09.487Z,2.80
2023-03-05T18:56:35.872Z,2.60
2023-03-05T18:59:02.243Z,3.08
2023-03-05T19:01:28.743Z,4.85
2023-03-05T19:03:55.469Z,4.40
2023-03-05T19:06:21.816Z,3.30
2023-03-05T19:08:56.520Z,3.92
2023-03-05T19:11:23.389Z,7.70
2023-03-05T19:13:52.137Z,7.38
2023-03-05T19:16:29.140Z,5.50
2023-03-05T19:19:16.433Z,5.18
2023-03-05T19:21:45.513Z,4.90
2023-03-05T19:24:12.187Z,3.47
2023-03-05T19:26:39.140Z,3.00
2023-03-05T19:29:07.443Z,2.80
2023-03-05T19:31:33.956Z,2.80
2023-03-05T19:34:01.158Z,3.70
2023-03-05T19:36:27.663Z,3.40
2023-03-05T19:38:54.276Z,3.13
2023-03-05T19:41:21.602Z,2.80
2023-03-05T19:43:51.954Z,2.35
2023-03-05T19:46:18.564Z,2.35
2023-03-05T19:48:45.486Z,1.85
2023-03-05T19:51:14.654Z,1.98
2023-03-05T19:53:42.140Z,1.77
2023-03-05T19:56:09.782Z,1.98
2023-03-05T19:58:37.366Z,1.80
2023-03-05T20:01:36.815Z,2.25
2023-03-05T20:04:05.067Z,1.60
2023-03-05T20:06:32.768Z,1.80
2023-03-05T20:08:59.326Z,2.30
2023-03-05T20:11:26.639Z,2.30
2023-03-05T20:13:55.219Z,2.22
2023-03-05T20:16:23.607Z,2.50
2023-03-05T20:18:54.662Z,2.97
2023-03-05T20:21:23.709Z,3.03
2023-03-05T20:23:55.913Z,3.20
2023-03-05T20:26:23.700Z,3.00
2023-03-05T20:28:50.292Z,3.55
2023-03-05T20:31:21.965Z,3.03
2023-03-05T20:33:49.309Z,3.40
2023-03-05T20:36:15.820Z,2.90
2023-03-05T20:38:42.552Z,2.72
2023-03-05T20:41:11.451Z,2.90
2023-03-05T20:43:42.515Z,2.30
2023-03-05T20:46:24.087Z,2.42
2023-03-05T20:48:53.470Z,2.42
2023-03-05T20:51:29.738Z,2.35
2023-03-05T20:54:02.181Z,2.53
2023-03-05T20:56:29.476Z,2.50
2023-03-05T20:58:58.073Z,1.92
2023-03-05T21:01:25.172Z,2.33
2023-03-05T21:03:53.597Z,2.10
2023-03-05T21:06:20.015Z,2.20
2023-03-05T21:08:46.366Z,2.27
2023-03-05T21:11:13.709Z,1.92
2023-03-05T21:13:40.114Z,2.08
2023-03-05T21:16:12.014Z,1.95
2023-03-05T21:18:38.368Z,1.90
2023-03-05T21:21:05.574Z,1.93
2023-03-05T21:23:32.559Z,2.55
2023-03-05T21:25:59.201Z,1.85
2023-03-05T21:28:25.666Z,3.05
2023-03-05T21:30:54.192Z,2.80
2023-03-05T21:33:22.991Z,2.63
2023-03-05T21:35:52.641Z,2.50
2023-03-05T21:38:22.896Z,2.55
2023-03-05T21:40:50.306Z,2.67
2023-03-05T21:43:19.906Z,2.60
2023-03-05T21:45:47.193Z,2.10
2023-03-05T21:48:14.152Z,2.42
2023-03-05T21:50:42.084Z,2.35
2023-03-05T21:53:08.651Z,3.30
2023-03-05T21:55:46.229Z,2.08
2023-03-05T21:58:12.878Z,1.77
2023-03-05T22:00:39.232Z,1.70
2023-03-05T22:03:05.619Z,1.67
2023-03-05T22:05:31.993Z,2.00
2023-03-05T22:07:58.328Z,2.28
2023-03-05T22:10:24.803Z,1.87
2023-03-05T22:13:11.872Z,3.35
2023-03-05T22:15:49.820Z,2.60
2023-03-05T22:18:19.509Z,2.65
2023-03-05T22:20:47.072Z,3.60
2023-03-05T22:23:14.019Z,2.63
2023-03-05T22:25:41.261Z,2.20
2023-03-05T22:28:09.241Z,2.65
2023-03-05T22:30:35.918Z,2.80
2023-03-05T22:33:02.926Z,3.10
2023-03-05T22:35:30.171Z,2.80
2023-03-05T22:37:57.746Z,2.72
2023-03-05T22:40:24.158Z,2.22
2023-03-05T22:42:50.656Z,2.08
2023-03-05T22:45:18.711Z,2.40
2023-03-05T22:47:49.749Z,2.20
2023-03-05T22:50:17.633Z,2.15
2023-03-05T22:52:44.164Z,3.70
2023-03-05T22:55:12.927Z,3.90
2023-03-05T22:57:39.904Z,2.33
2023-03-05T23:00:11.104Z,3.37
2023-03-05T23:02:37.458Z,4.10
2023-03-05T23:05:04.059Z,2.38
2023-03-05T23:07:34.708Z,2.58
2023-03-05T23:10:13.028Z,2.60
2023-03-05T23:12:44.482Z,2.40
2023-03-05T23:15:13.768Z,1.70
2023-03-05T23:17:40.747Z,1.80
2023-03-05T23:20:10.075Z,1.95
2023-03-05T23:22:37.837Z,2.00
2023-03-05T23:25:04.646Z,2.20
2023-03-05T23:27:31.019Z,2.20
2023-03-05T23:30:19.106Z,2.38
2023-03-05T23:32:54.552Z,2.50
2023-03-05T23:35:33.114Z,2.05
2023-03-05T23:38:01.412Z,1.90
2023-03-05T23:40:31.436Z,1.92
2023-03-05T23:42:58.583Z,1.90
2023-03-05T23:45:26.166Z,3.00
2023-03-05T23:47:52.962Z,2.53
2023-03-05T23:50:25.317Z,2.50
2023-03-05T23:52:53.943Z,2.25
2023-03-05T23:55:24.228Z,2.28
2023-03-05T23:57:51.943Z,2.20
